createdAt,value
2023-04-16T00:00:55.006Z,98366.98
2023-04-16T00:03:47.285Z,98364.34
2023-04-16T00:06:39.455Z,98363.31
2023-04-16T00:09:31.383Z,98364.31
2023-04-16T00:12:23.365Z,98366.36
2023-04-16T00:15:15.638Z,98366.39
2023-04-16T00:18:07.774Z,98363.02
2023-04-16T00:20:59.824Z,98361.50
2023-04-16T00:23:51.775Z,98363.17
2023-04-16T00:26:45.032Z,98364.53
2023-04-16T00:29:37.176Z,98368.05
2023-04-16T00:32:29.251Z,98371.61
2023-04-16T00:35:11.175Z,98367.54
2023-04-16T00:37:52.037Z,98370.21
2023-04-16T00:40:44.000Z,98370.98
2023-04-16T00:43:35.955Z,98369.73
2023-04-16T00:46:20.068Z,98375.89
2023-04-16T00:49:10.890Z,98371.86
2023-04-16T00:52:03.582Z,98377.29
2023-04-16T00:54:57.012Z,98369.88
2023-04-16T00:57:49.040Z,98379.98
2023-04-16T01:00:41.584Z,98376.65
2023-04-16T01:03:38.833Z,98376.19
2023-04-16T01:06:32.114Z,98374.66
2023-04-16T01:09:24.048Z,98378.52
2023-04-16T01:12:16.049Z,98380.08
2023-04-16T01:15:11.242Z,98382.93
2023-04-16T01:18:03.348Z,98389.96
2023-04-16T01:20:55.410Z,98391.46
2023-04-16T01:23:56.071Z,98394.37
2023-04-16T01:26:47.989Z,98390.67
2023-04-16T01:29:39.961Z,98390.95
2023-04-16T01:32:34.289Z,98392.42
2023-04-16T01:35:24.690Z,98390.38
2023-04-16T01:38:16.624Z,98388.27
2023-04-16T01:41:08.629Z,98388.60
2023-04-16T01:44:00.646Z,98392.10
2023-04-16T01:46:52.728Z,98395.84
2023-04-16T01:49:45.680Z,98400.60
2023-04-16T01:52:37.760Z,98403.69
2023-04-16T01:55:29.838Z,98407.89
2023-04-16T01:58:21.939Z,98406.05
2023-04-16T02:01:05.825Z,98409.80
2023-04-16T02:03:58.539Z,98407.63
2023-04-16T02:06:50.854Z,98411.23
2023-04-16T02:09:43.525Z,98414.81
2023-04-16T02:12:35.444Z,98420.61
2023-04-16T02:15:27.504Z,98422.73
2023-04-16T02:18:19.913Z,98424.50
2023-04-16T02:21:08.439Z,98427.84
2023-04-16T02:24:00.447Z,98427.48
2023-04-16T02:26:34.886Z,98428.48
2023-04-16T02:29:26.835Z,98427.67
2023-04-16T02:32:19.160Z,98428.78
2023-04-16T02:35:11.761Z,98430.14
2023-04-16T02:37:46.436Z,98432.77
2023-04-16T02:40:38.631Z,98432.42
2023-04-16T02:43:30.592Z,98436.95
2023-04-16T02:46:22.601Z,98433.70
2023-04-16T02:49:14.695Z,98436.05
2023-04-16T02:52:07.084Z,98441.08
2023-04-16T02:54:59.093Z,98443.38
2023-04-16T02:57:52.810Z,98450.36
2023-04-16T03:00:44.767Z,98450.56
2023-04-16T03:03:36.866Z,98453.65
2023-04-16T03:06:28.885Z,98453.71
2023-04-16T03:09:20.855Z,98453.02
2023-04-16T03:12:12.802Z,98454.42
2023-04-16T03:15:05.364Z,98456.48
2023-04-16T03:17:57.563Z,98460.76
2023-04-16T03:20:31.966Z,98466.29
2023-04-16T03:23:23.977Z,98471.20
2023-04-16T03:26:15.922Z,98470.44
2023-04-16T03:29:08.294Z,98479.30
2023-04-16T03:32:00.469Z,98480.85
2023-04-16T03:34:52.496Z,98481.81
2023-04-16T03:37:26.449Z,98487.23
2023-04-16T03:40:18.433Z,98493.33
2023-04-16T03:43:10.469Z,98497.06
2023-04-16T03:46:02.558Z,98495.23
2023-04-16T03:48:39.645Z,98495.06
2023-04-16T03:51:31.980Z,98496.56
2023-04-16T03:54:23.956Z,98499.55
2023-04-16T03:57:15.953Z,98508.14
2023-04-16T04:00:10.032Z,98512.77
2023-04-16T04:03:02.224Z,98514.09
2023-04-16T04:05:40.277Z,98515.98
2023-04-16T04:08:32.319Z,98523.27
2023-04-16T04:11:24.296Z,98519.98
2023-04-16T04:14:16.306Z,98520.92
2023-04-16T04:17:08.312Z,98520.75
2023-04-16T04:20:01.720Z,98524.34
2023-04-16T04:22:54.111Z,98525.31
2023-04-16T04:25:46.833Z,98538.29
2023-04-16T04:28:38.845Z,98540.64
2023-04-16T04:31:30.949Z,98544.70
2023-04-16T04:34:22.976Z,98542.95
2023-04-16T04:37:14.914Z,98543.45
2023-04-16T04:39:52.039Z,98548.11
2023-04-16T04:42:43.897Z,98551.02
2023-04-16T04:45:35.932Z,98558.29
2023-04-16T04:48:28.247Z,98554.76
2023-04-16T04:51:20.280Z,98560.19
2023-04-16T04:54:12.298Z,98564.61
2023-04-16T04:56:54.061Z,98561.88
2023-04-16T04:59:46.129Z,98564.21
2023-04-16T05:02:38.551Z,98569.87
2023-04-16T05:05:30.648Z,98575.62
2023-04-16T05:08:22.636Z,98577.06
2023-04-16T05:11:14.653Z,98582.31
2023-04-16T05:14:06.852Z,98588.30
2023-04-16T05:16:59.013Z,98597.14
2023-04-16T05:19:51.003Z,98598.61
2023-04-16T05:22:43.022Z,98604.89
2023-04-16T05:25:34.992Z,98603.53
2023-04-16T05:28:27.011Z,98606.53
2023-04-16T05:31:19.117Z,98604.27
2023-04-16T05:34:11.244Z,98606.73
2023-04-16T05:37:03.184Z,98605.63
2023-04-16T05:39:55.150Z,98606.25
2023-04-16T05:42:29.778Z,98605.84
2023-04-16T05:45:21.930Z,98607.48
2023-04-16T05:48:13.920Z,98610.45
2023-04-16T05:51:06.347Z,98618.27
2023-04-16T05:53:58.356Z,98621.38
2023-04-16T05:56:50.339Z,98626.56
2023-04-16T05:59:42.302Z,98636.06
2023-04-16T06:02:34.731Z,98635.23
2023-04-16T06:05:27.025Z,98637.86
2023-04-16T06:08:10.270Z,98641.43
2023-04-16T06:11:02.379Z,98642.45
2023-04-16T06:13:54.358Z,98639.43
2023-04-16T06:16:46.505Z,98643.77
2023-04-16T06:19:38.478Z,98643.39
2023-04-16T06:22:30.604Z,98643.59
2023-04-16T06:25:22.618Z,98644.07
2023-04-16T06:28:14.581Z,98644.95
2023-04-16T06:31:06.898Z,98649.61
2023-04-16T06:33:59.092Z,98653.23
2023-04-16T06:36:42.079Z,98650.90
2023-04-16T06:39:34.099Z,98656.13
2023-04-16T06:42:26.049Z,98656.14
2023-04-16T06:45:18.212Z,98660.44
2023-04-16T06:48:10.300Z,98664.27
2023-04-16T06:51:02.828Z,98659.73
2023-04-16T06:53:54.676Z,98649.70
2023-04-16T06:56:46.793Z,98652.07
2023-04-16T06:59:38.836Z,98645.10
2023-04-16T07:02:31.042Z,98650.82
2023-04-16T07:05:23.316Z,98651.09
2023-04-16T07:08:15.449Z,98650.09
2023-04-16T07:11:07.862Z,98658.59
2023-04-16T07:14:00.094Z,98660.64
2023-04-16T07:16:52.118Z,98660.00
2023-04-16T07:19:32.757Z,98657.89
2023-04-16T07:22:08.060Z,98660.63
2023-04-16T07:25:00.397Z,98664.48
2023-04-16T07:27:52.394Z,98668.34
2023-04-16T07:30:34.003Z,98674.19
2023-04-16T07:33:27.273Z,98670.90
2023-04-16T07:36:19.283Z,98671.80
2023-04-16T07:39:13.118Z,98670.17
2023-04-16T07:41:50.491Z,98673.34
2023-04-16T07:44:42.417Z,98673.23
2023-04-16T07:47:34.520Z,98676.73
2023-04-16T07:50:16.338Z,98683.23
2023-04-16T07:52:48.743Z,98683.84
2023-04-16T07:55:23.516Z,98685.50
2023-04-16T07:58:15.632Z,98686.09
2023-04-16T08:01:07.925Z,98687.27
2023-04-16T08:04:00.219Z,98690.33
2023-04-16T08:06:52.582Z,98693.08
2023-04-16T08:09:52.078Z,98697.23
2023-04-16T08:12:44.421Z,98700.61
2023-04-16T08:15:36.877Z,98702.59
2023-04-16T08:18:29.172Z,98701.77
2023-04-16T08:21:21.194Z,98705.48
2023-04-16T08:24:13.411Z,98706.03
2023-04-16T08:26:48.132Z,98707.95
2023-04-16T08:29:40.187Z,98709.30
2023-04-16T08:32:14.649Z,98704.95
2023-04-16T08:35:07.267Z,98709.66
2023-04-16T08:38:02.192Z,98711.98
2023-04-16T08:40:56.032Z,98715.01
2023-04-16T08:43:49.983Z,98719.80
2023-04-16T08:46:44.686Z,98722.45
2023-04-16T08:49:44.323Z,98720.80
2023-04-16T08:52:20.829Z,98720.02
2023-04-16T08:55:15.381Z,98714.67
2023-04-16T08:57:55.153Z,98715.80
2023-04-16T09:00:47.394Z,98720.71
2023-04-16T09:03:29.224Z,98721.31
2023-04-16T09:06:21.371Z,98726.79
2023-04-16T09:09:14.083Z,98730.32
2023-04-16T09:12:09.208Z,98733.71
2023-04-16T09:15:03.321Z,98736.16
2023-04-16T09:17:40.623Z,98733.72
2023-04-16T09:20:32.783Z,98735.27
2023-04-16T09:23:26.007Z,98731.06
2023-04-16T09:26:18.621Z,98732.33
2023-04-16T09:29:10.809Z,98739.12
2023-04-16T09:32:06.347Z,98738.48
2023-04-16T09:35:00.654Z,98735.31
2023-04-16T09:37:59.226Z,98738.23
2023-04-16T09:41:09.421Z,98746.63
2023-04-16T09:44:04.170Z,98755.57
2023-04-16T09:46:56.254Z,98754.02
2023-04-16T09:49:48.415Z,98751.58
2023-04-16T09:52:40.856Z,98749.13
2023-04-16T09:55:33.719Z,98751.32
2023-04-16T09:58:26.063Z,98752.07
2023-04-16T10:01:20.690Z,98748.66
2023-04-16T10:04:12.851Z,98749.20
2023-04-16T10:07:08.603Z,98749.90
2023-04-16T10:10:01.253Z,98747.42
2023-04-16T10:12:55.095Z,98748.09
2023-04-16T10:15:47.672Z,98748.97
2023-04-16T10:18:41.459Z,98748.17
2023-04-16T10:21:22.636Z,98743.97
2023-04-16T10:24:16.697Z,98743.77
2023-04-16T10:27:08.756Z,98747.81
2023-04-16T10:30:01.422Z,98750.25
2023-04-16T10:32:54.357Z,98747.83
2023-04-16T10:35:29.394Z,98747.84
2023-04-16T10:38:29.216Z,98745.14
2023-04-16T10:41:22.623Z,98750.36
2023-04-16T10:44:14.622Z,98756.44
2023-04-16T10:47:02.909Z,98754.40
2023-04-16T10:49:55.383Z,98754.16
2023-04-16T10:52:48.248Z,98752.50
2023-04-16T10:55:42.322Z,98760.16
2023-04-16T10:58:33.340Z,98758.64
2023-04-16T11:01:33.141Z,98756.70
2023-04-16T11:04:34.918Z,98755.86
2023-04-16T11:07:36.165Z,98757.41
2023-04-16T11:10:28.162Z,98763.67
2023-04-16T11:13:20.987Z,98763.81
2023-04-16T11:16:14.133Z,98766.41
2023-04-16T11:19:06.167Z,98768.29
2023-04-16T11:21:59.311Z,98765.69
2023-04-16T11:24:57.042Z,98770.33
2023-04-16T11:27:49.064Z,98768.98
2023-04-16T11:30:42.503Z,98771.06
2023-04-16T11:33:34.502Z,98774.54
2023-04-16T11:36:09.469Z,98776.44
2023-04-16T11:39:05.347Z,98770.27
2023-04-16T11:41:57.360Z,98768.98
2023-04-16T11:44:52.366Z,98769.39
2023-04-16T11:47:51.732Z,98763.09
2023-04-16T11:50:44.059Z,98762.09
2023-04-16T11:53:37.502Z,98766.52
2023-04-16T11:56:30.645Z,98766.73
2023-04-16T11:59:24.002Z,98766.90
2023-04-16T12:02:16.121Z,98770.54
2023-04-16T12:05:32.209Z,98771.77
2023-04-16T12:08:32.524Z,98772.52
2023-04-16T12:11:44.542Z,98772.15
2023-04-16T12:14:36.652Z,98766.03
2023-04-16T12:17:28.929Z,98767.81
2023-04-16T12:20:20.995Z,98768.83
2023-04-16T12:23:23.249Z,98770.42
2023-04-16T12:26:15.581Z,98769.55
2023-04-16T12:29:23.602Z,98773.62
2023-04-16T12:32:24.956Z,98768.49
2023-04-16T12:35:37.555Z,98764.27
2023-04-16T12:38:29.596Z,98761.79
2023-04-16T12:41:21.913Z,98759.52
2023-04-16T12:44:17.939Z,98759.27
2023-04-16T12:47:06.213Z,98761.95
2023-04-16T12:49:58.745Z,98762.21
2023-04-16T12:52:39.790Z,98761.85
2023-04-16T12:55:31.760Z,98759.44
2023-04-16T12:58:23.793Z,98760.83
2023-04-16T13:01:15.837Z,98760.15
2023-04-16T13:04:07.991Z,98763.92
2023-04-16T13:07:00.469Z,98761.64
2023-04-16T13:09:52.464Z,98760.35
2023-04-16T13:12:46.445Z,98755.13
2023-04-16T13:15:27.034Z,98754.21
2023-04-16T13:18:19.016Z,98753.91
2023-04-16T13:21:12.070Z,98752.91
2023-04-16T13:24:04.162Z,98757.67
2023-04-16T13:26:56.798Z,98753.93
2023-04-16T13:29:48.777Z,98749.27
2023-04-16T13:32:41.211Z,98744.39
2023-04-16T13:35:33.302Z,98738.95
2023-04-16T13:38:25.294Z,98741.40
2023-04-16T13:41:17.241Z,98741.83
2023-04-16T13:44:09.307Z,98740.91
2023-04-16T13:46:47.647Z,98744.52
2023-04-16T13:49:39.855Z,98740.96
2023-04-16T13:52:31.832Z,98745.54
2023-04-16T13:55:23.818Z,98744.74
2023-04-16T13:58:16.301Z,98741.46
2023-04-16T14:01:08.358Z,98737.95
2023-04-16T14:04:01.885Z,98734.27
2023-04-16T14:06:53.953Z,98735.55
2023-04-16T14:09:45.950Z,98732.92
2023-04-16T14:12:38.107Z,98732.88
2023-04-16T14:15:30.195Z,98734.61
2023-04-16T14:18:11.198Z,98733.23
2023-04-16T14:21:03.168Z,98736.98
2023-04-16T14:23:55.287Z,98736.27
2023-04-16T14:26:27.144Z,98733.94
2023-04-16T14:29:19.129Z,98735.34
2023-04-16T14:32:11.325Z,98737.36
2023-04-16T14:34:59.718Z,98734.36
2023-04-16T14:37:51.744Z,98734.06
2023-04-16T14:40:43.728Z,98730.41
2023-04-16T14:43:35.924Z,98734.63
2023-04-16T14:46:28.017Z,98736.42
2023-04-16T14:49:20.088Z,98732.85
2023-04-16T14:52:12.457Z,98736.88
2023-04-16T14:55:05.486Z,98734.77
2023-04-16T14:57:58.082Z,98737.42
2023-04-16T15:00:50.122Z,98737.66
2023-04-16T15:03:43.169Z,98733.72
2023-04-16T15:06:36.520Z,98737.79
2023-04-16T15:09:29.100Z,98733.42
2023-04-16T15:12:21.060Z,98734.84
2023-04-16T15:15:13.702Z,98733.39
2023-04-16T15:18:06.351Z,98737.99
2023-04-16T15:20:58.432Z,98734.45
2023-04-16T15:23:50.447Z,98732.41
2023-04-16T15:26:32.546Z,98735.65
2023-04-16T15:29:24.549Z,98739.80
2023-04-16T15:32:16.571Z,98740.35
2023-04-16T15:35:11.345Z,98743.60
2023-04-16T15:38:03.558Z,98745.34
2023-04-16T15:40:55.797Z,98751.34
2023-04-16T15:43:47.842Z,98753.13
2023-04-16T15:46:39.899Z,98749.83
2023-04-16T15:49:31.967Z,98748.98
2023-04-16T15:52:23.969Z,98748.02
2023-04-16T15:55:16.958Z,98749.44
2023-04-16T15:58:08.979Z,98752.95
2023-04-16T16:01:01.076Z,98751.55
2023-04-16T16:03:53.162Z,98757.21
2023-04-16T16:06:45.306Z,98756.30
2023-04-16T16:09:38.094Z,98759.40
2023-04-16T16:12:30.362Z,98759.78
2023-04-16T16:15:12.719Z,98762.05
2023-04-16T16:18:05.159Z,98763.86
2023-04-16T16:21:00.237Z,98762.95
2023-04-16T16:23:52.247Z,98764.47
2023-04-16T16:26:44.238Z,98765.70
2023-04-16T16:29:36.307Z,98767.14
2023-04-16T16:32:28.387Z,98769.86
2023-04-16T16:35:20.724Z,98769.95
2023-04-16T16:38:09.673Z,98768.56
2023-04-16T16:41:01.681Z,98773.02
2023-04-16T16:43:56.171Z,98769.73
2023-04-16T16:46:48.507Z,98772.55
2023-04-16T16:49:40.542Z,98774.17
2023-04-16T16:52:33.444Z,98770.37
2023-04-16T16:55:26.180Z,98775.63
2023-04-16T16:58:18.354Z,98777.95
2023-04-16T17:01:12.944Z,98778.55
2023-04-16T17:04:05.300Z,98780.86
2023-04-16T17:06:57.460Z,98783.33
2023-04-16T17:09:49.483Z,98789.20
2023-04-16T17:12:41.588Z,98788.50
2023-04-16T17:15:34.409Z,98794.61
2023-04-16T17:18:26.609Z,98792.89
2023-04-16T17:21:18.595Z,98793.17
2023-04-16T17:24:10.848Z,98796.66
2023-04-16T17:27:03.210Z,98800.66
2023-04-16T17:29:52.873Z,98801.95
2023-04-16T17:32:27.961Z,98807.56
2023-04-16T17:35:20.058Z,98809.91
2023-04-16T17:38:12.075Z,98813.05
2023-04-16T17:41:04.050Z,98813.69
2023-04-16T17:43:56.062Z,98814.09
2023-04-16T17:46:48.002Z,98818.25
2023-04-16T17:49:39.966Z,98821.21
2023-04-16T17:52:32.103Z,98820.08
2023-04-16T17:55:24.429Z,98826.20
2023-04-16T17:58:16.432Z,98835.30
2023-04-16T18:01:08.764Z,98836.50
2023-04-16T18:04:01.094Z,98838.88
2023-04-16T18:06:53.202Z,98838.34
2023-04-16T18:09:45.312Z,98843.98
2023-04-16T18:12:37.447Z,98846.54
2023-04-16T18:15:29.625Z,98854.67
2023-04-16T18:18:21.638Z,98863.52
2023-04-16T18:21:13.792Z,98866.98
2023-04-16T18:24:06.688Z,98866.54
2023-04-16T18:26:58.714Z,98869.34
2023-04-16T18:29:51.446Z,98872.11
2023-04-16T18:33:04.202Z,98880.43
2023-04-16T18:35:55.511Z,98881.48
2023-04-16T18:39:00.065Z,98885.45
2023-04-16T18:41:52.827Z,98886.01
2023-04-16T18:44:44.877Z,98883.48
2023-04-16T18:47:36.955Z,98888.13
2023-04-16T18:50:29.038Z,98890.13
2023-04-16T18:53:21.241Z,98890.25
2023-04-16T18:56:13.436Z,98893.05
2023-04-16T18:59:05.468Z,98893.55
2023-04-16T19:01:57.687Z,98893.38
2023-04-16T19:04:49.854Z,98896.83
2023-04-16T19:07:41.896Z,98898.19
2023-04-16T19:10:16.618Z,98897.77
2023-04-16T19:13:08.730Z,98896.30
2023-04-16T19:16:02.283Z,98898.25
2023-04-16T19:18:54.463Z,98897.46
2023-04-16T19:21:46.418Z,98900.20
2023-04-16T19:24:38.548Z,98900.66
2023-04-16T19:27:15.716Z,98903.83
2023-04-16T19:30:10.378Z,98899.59
2023-04-16T19:33:02.407Z,98901.96
2023-04-16T19:35:54.472Z,98901.20
2023-04-16T19:38:46.611Z,98904.94
2023-04-16T19:41:38.703Z,98906.72
2023-04-16T19:44:32.392Z,98909.30
2023-04-16T19:47:15.483Z,98909.79
2023-04-16T19:49:52.711Z,98906.84
2023-04-16T19:52:44.795Z,98906.14
2023-04-16T19:55:36.900Z,98909.48
2023-04-16T19:58:28.908Z,98906.02
2023-04-16T20:01:20.988Z,98909.43
2023-04-16T20:04:13.312Z,98908.02
2023-04-16T20:07:05.478Z,98911.09
2023-04-16T20:09:57.511Z,98912.80
2023-04-16T20:12:50.766Z,98911.64
2023-04-16T20:15:42.824Z,98908.73
2023-04-16T20:18:41.362Z,98912.00
2023-04-16T20:21:33.572Z,98909.97
2023-04-16T20:24:26.582Z,98911.16
2023-04-16T20:27:19.422Z,98913.98
2023-04-16T20:30:13.193Z,98912.95
2023-04-16T20:33:07.733Z,98918.27
2023-04-16T20:35:59.956Z,98918.86
2023-04-16T20:38:53.828Z,98917.92
2023-04-16T20:41:46.848Z,98915.30
2023-04-16T20:44:41.242Z,98917.70
2023-04-16T20:47:34.742Z,98919.11
2023-04-16T20:50:27.082Z,98917.77
2023-04-16T20:53:20.157Z,98922.33
2023-04-16T20:56:14.695Z,98917.77
2023-04-16T20:59:06.662Z,98920.52
2023-04-16T21:01:58.734Z,98920.01
2023-04-16T21:04:51.071Z,98922.34
2023-04-16T21:07:43.501Z,98920.27
2023-04-16T21:10:35.616Z,98919.30
2023-04-16T21:13:27.622Z,98926.09
2023-04-16T21:16:19.744Z,98919.59
2023-04-16T21:19:12.018Z,98918.67
2023-04-16T21:22:04.380Z,98920.23
2023-04-16T21:24:56.335Z,98915.96
2023-04-16T21:27:51.193Z,98914.80
2023-04-16T21:30:33.268Z,98914.48
2023-04-16T21:33:25.239Z,98912.90
2023-04-16T21:36:17.901Z,98913.41
2023-04-16T21:39:11.048Z,98911.33
2023-04-16T21:42:03.310Z,98914.61
2023-04-16T21:44:55.332Z,98915.31
2023-04-16T21:47:47.295Z,98917.11
2023-04-16T21:50:39.477Z,98916.25
2023-04-16T21:53:15.747Z,98917.06
2023-04-16T21:56:08.637Z,98916.96
2023-04-16T21:59:00.781Z,98920.58
2023-04-16T22:01:52.895Z,98919.30
2023-04-16T22:04:45.015Z,98921.64
2023-04-16T22:07:37.711Z,98918.09
2023-04-16T22:10:29.803Z,98919.45
2023-04-16T22:13:22.840Z,98921.59
2023-04-16T22:16:15.602Z,98917.52
2023-04-16T22:19:07.708Z,98917.40
2023-04-16T22:21:45.373Z,98916.95
2023-04-16T22:24:37.322Z,98918.74
2023-04-16T22:27:29.332Z,98923.41
2023-04-16T22:30:21.591Z,98919.85
2023-04-16T22:33:13.655Z,98920.76
2023-04-16T22:36:06.243Z,98925.71
2023-04-16T22:38:58.296Z,98929.33
2023-04-16T22:41:32.814Z,98928.00
2023-04-16T22:44:24.787Z,98923.35
2023-04-16T22:47:16.736Z,98924.71
2023-04-16T22:50:10.981Z,98920.11
2023-04-16T22:53:03.029Z,98919.70
2023-04-16T22:55:55.077Z,98920.23
2023-04-16T22:58:48.924Z,98918.91
2023-04-16T23:01:42.159Z,98917.59
2023-04-16T23:04:34.367Z,98915.85
2023-04-16T23:07:26.565Z,98912.34
2023-04-16T23:10:18.770Z,98911.85
2023-04-16T23:13:10.798Z,98913.43
2023-04-16T23:16:02.867Z,98908.92
2023-04-16T23:18:55.123Z,98904.82
2023-04-16T23:21:47.119Z,98907.19
2023-04-16T23:24:39.050Z,98904.59
2023-04-16T23:27:32.449Z,98901.75
2023-04-16T23:30:24.480Z,98903.55
2023-04-16T23:33:16.499Z,98902.61
2023-04-16T23:36:10.039Z,98901.48
2023-04-16T23:39:02.010Z,98897.66
2023-04-16T23:41:54.090Z,98896.39
2023-04-16T23:44:46.155Z,98898.13
2023-04-16T23:47:38.502Z,98896.55
2023-04-16T23:50:30.596Z,98896.55
2023-04-16T23:53:22.597Z,98899.67
2023-04-16T23:56:15.417Z,98897.84
2023-04-16T23:59:08.679Z,98897.80
